createdAt,value
2022-11-23T00:01:56.998Z,4.83
2022-11-23T00:05:05.889Z,4.81
2022-11-23T00:08:13.887Z,4.80
2022-11-23T00:11:25.196Z,4.77
2022-11-23T00:14:33.910Z,4.80
2022-11-23T00:17:42.487Z,4.79
2022-11-23T00:20:51.903Z,4.82
2022-11-23T00:24:07.193Z,4.77
2022-11-23T00:27:21.888Z,4.74
2022-11-23T00:30:23.836Z,4.73
2022-11-23T00:33:38.910Z,4.76
2022-11-23T00:36:46.869Z,4.69
2022-11-23T00:40:01.885Z,4.69
2022-11-23T00:43:16.942Z,4.69
2022-11-23T00:46:27.757Z,4.71
2022-11-23T00:49:49.871Z,4.73
2022-11-23T00:53:00.315Z,4.72
2022-11-23T00:56:15.885Z,4.72
2022-11-23T00:59:17.712Z,4.72
2022-11-23T01:02:32.881Z,4.74
2022-11-23T01:05:43.892Z,4.68
2022-11-23T01:08:55.033Z,4.73
2022-11-23T01:12:09.880Z,4.73
2022-11-23T01:15:24.879Z,4.72
2022-11-23T01:18:26.732Z,4.72
2022-11-23T01:21:42.888Z,4.74
2022-11-23T01:24:57.878Z,4.74
2022-11-23T01:28:06.545Z,4.77
2022-11-23T01:31:17.910Z,4.70
2022-11-23T01:34:32.898Z,4.74
2022-11-23T01:37:47.869Z,4.74
2022-11-23T01:40:49.804Z,4.79
2022-11-23T01:44:04.895Z,4.77
2022-11-23T01:47:19.859Z,4.78
2022-11-23T01:50:34.896Z,4.77
2022-11-23T01:53:43.960Z,4.81
2022-11-23T01:57:06.919Z,4.77
2022-11-23T02:00:15.882Z,4.77
2022-11-23T02:03:30.880Z,4.78
2022-11-23T02:06:40.135Z,4.78
2022-11-23T02:09:48.891Z,4.73
2022-11-23T02:13:08.877Z,4.74
2022-11-23T02:16:18.801Z,4.73
2022-11-23T02:19:44.878Z,4.72
2022-11-23T02:23:21.877Z,4.73
2022-11-23T02:26:35.877Z,4.71
2022-11-23T02:29:50.888Z,4.71
2022-11-23T02:32:59.534Z,4.71
2022-11-23T02:36:07.942Z,4.72
2022-11-23T02:39:37.271Z,4.66
2022-11-23T02:42:52.852Z,4.72
2022-11-23T02:46:03.939Z,4.70
2022-11-23T02:49:18.835Z,4.71
2022-11-23T02:52:33.870Z,4.70
2022-11-23T02:55:41.885Z,4.65
2022-11-23T02:58:50.445Z,4.66
2022-11-23T03:02:05.891Z,4.64
2022-11-23T03:05:14.486Z,4.64
2022-11-23T03:08:22.861Z,4.61
2022-11-23T03:11:31.804Z,4.61
2022-11-23T03:14:39.839Z,4.62
2022-11-23T03:17:48.383Z,4.57
2022-11-23T03:20:56.839Z,4.59
2022-11-23T03:24:05.741Z,4.57
2022-11-23T03:27:27.857Z,4.54
2022-11-23T03:30:42.895Z,4.59
2022-11-23T03:33:44.737Z,4.57
2022-11-23T03:36:59.870Z,4.59
2022-11-23T03:40:09.335Z,4.58
2022-11-23T03:47:08.903Z,4.54
2022-11-23T03:50:25.973Z,4.55
2022-11-23T03:53:34.465Z,4.54
2022-11-23T03:56:42.924Z,4.48
2022-11-23T03:59:57.894Z,4.49
2022-11-23T04:03:13.917Z,4.44
2022-11-23T04:06:15.871Z,4.45
2022-11-23T04:09:31.169Z,4.43
2022-11-23T04:12:45.964Z,4.46
2022-11-23T04:16:00.905Z,4.49
2022-11-23T04:19:15.927Z,4.44
2022-11-23T04:22:18.156Z,4.44
2022-11-23T04:25:32.920Z,4.44
2022-11-23T04:28:54.940Z,4.48
2022-11-23T04:32:03.696Z,4.49
2022-11-23T04:35:11.911Z,4.44
2022-11-23T04:38:26.885Z,4.44
2022-11-23T04:41:28.841Z,4.39
2022-11-23T04:44:43.888Z,4.41
2022-11-23T04:47:45.799Z,4.42
2022-11-23T04:51:01.900Z,4.42
2022-11-23T04:54:10.467Z,4.42
2022-11-23T04:57:18.890Z,4.38
2022-11-23T05:00:27.968Z,4.38
2022-11-23T05:03:36.985Z,4.43
2022-11-23T05:06:46.293Z,4.40
2022-11-23T05:10:00.899Z,4.41
2022-11-23T05:13:09.482Z,4.38
2022-11-23T05:16:23.911Z,4.37
2022-11-23T05:19:25.723Z,4.37
2022-11-23T05:22:40.884Z,4.36
2022-11-23T05:25:42.852Z,4.33
2022-11-23T05:29:04.896Z,4.37
2022-11-23T05:32:13.925Z,4.36
2022-11-23T05:35:22.540Z,4.34
2022-11-23T05:38:36.905Z,4.34
2022-11-23T05:41:44.928Z,4.34
2022-11-23T05:44:53.517Z,4.34
2022-11-23T05:48:07.896Z,4.36
2022-11-23T05:51:16.478Z,4.35
2022-11-23T05:54:25.903Z,4.36
2022-11-23T05:57:34.466Z,4.39
2022-11-23T06:00:48.939Z,4.38
2022-11-23T06:03:51.528Z,4.41
2022-11-23T06:07:07.978Z,4.45
2022-11-23T06:10:11.626Z,4.49
2022-11-23T06:13:26.893Z,4.45
2022-11-23T06:16:35.570Z,4.50
2022-11-23T06:19:43.899Z,4.52
2022-11-23T06:23:02.877Z,4.50
2022-11-23T06:26:11.469Z,4.51
2022-11-23T06:29:27.881Z,4.46
2022-11-23T06:32:42.900Z,4.47
2022-11-23T06:35:53.758Z,4.44
2022-11-23T06:39:08.906Z,4.42
2022-11-23T06:42:38.342Z,4.48
2022-11-23T06:45:48.471Z,4.47
2022-11-23T06:48:56.876Z,4.47
2022-11-23T06:52:11.888Z,4.48
2022-11-23T06:55:13.861Z,4.45
2022-11-23T06:58:28.896Z,4.43
2022-11-23T07:01:37.719Z,4.45
2022-11-23T07:04:45.887Z,4.47
2022-11-23T07:08:00.888Z,4.49
2022-11-23T07:11:17.913Z,4.57
2022-11-23T07:14:19.845Z,4.82
2022-11-23T07:17:35.518Z,4.95
2022-11-23T07:20:37.775Z,5.04
2022-11-23T07:23:55.053Z,4.97
2022-11-23T07:27:10.679Z,4.89
2022-11-23T07:30:29.317Z,4.79
2022-11-23T07:33:31.600Z,4.71
2022-11-23T07:36:46.910Z,4.76
2022-11-23T07:40:02.177Z,4.76
2022-11-23T07:43:16.898Z,4.77
2022-11-23T07:46:25.871Z,4.71
2022-11-23T07:49:34.771Z,4.72
2022-11-23T07:52:44.889Z,4.74
2022-11-23T07:56:05.958Z,4.77
2022-11-23T07:59:14.672Z,4.85
2022-11-23T08:02:23.010Z,4.80
2022-11-23T08:05:32.871Z,4.81
2022-11-23T08:08:41.896Z,4.87
2022-11-23T08:11:50.543Z,4.91
2022-11-23T08:15:05.956Z,4.91
2022-11-23T08:18:20.927Z,4.94
2022-11-23T08:21:35.894Z,4.98
2022-11-23T08:24:37.738Z,4.98
2022-11-23T08:28:07.929Z,5.04
2022-11-23T08:31:17.386Z,5.00
2022-11-23T08:34:31.979Z,5.00
2022-11-23T08:37:46.893Z,5.08
2022-11-23T08:40:55.879Z,5.13
2022-11-23T08:44:05.724Z,5.16
2022-11-23T08:47:14.886Z,5.12
2022-11-23T08:50:29.878Z,5.21
2022-11-23T08:53:44.888Z,5.20
2022-11-23T08:56:52.894Z,5.23
2022-11-23T09:00:01.667Z,5.23
2022-11-23T09:03:16.876Z,5.25
2022-11-23T09:06:31.896Z,5.25
2022-11-23T09:09:46.888Z,5.28
2022-11-23T09:12:56.257Z,5.23
2022-11-23T09:16:05.623Z,5.20
2022-11-23T09:19:13.869Z,5.17
2022-11-23T09:22:28.874Z,5.23
2022-11-23T09:25:44.203Z,5.19
2022-11-23T09:28:58.948Z,5.24
2022-11-23T09:32:09.854Z,5.31
2022-11-23T09:35:24.883Z,5.35
2022-11-23T09:38:55.156Z,5.33
2022-11-23T09:42:17.840Z,5.31
2022-11-23T09:45:40.883Z,5.31
2022-11-23T09:48:49.104Z,5.33
2022-11-23T09:52:03.888Z,5.26
2022-11-23T09:55:24.863Z,5.34
2022-11-23T09:58:46.929Z,5.37
2022-11-23T10:01:54.962Z,5.40
2022-11-23T10:05:04.867Z,5.39
2022-11-23T10:08:47.894Z,5.41
2022-11-23T10:12:40.289Z,5.44
2022-11-23T10:16:25.964Z,5.44
2022-11-23T10:20:12.325Z,5.44
2022-11-23T10:23:38.089Z,5.44
2022-11-23T10:26:53.146Z,5.47
2022-11-23T10:30:07.856Z,5.46
2022-11-23T10:33:53.124Z,5.53
2022-11-23T10:37:07.882Z,5.53
2022-11-23T10:40:25.860Z,5.57
2022-11-23T10:43:40.855Z,5.56
2022-11-23T10:46:49.487Z,5.57
2022-11-23T10:50:04.878Z,5.50
2022-11-23T10:53:29.882Z,5.58
2022-11-23T10:56:46.882Z,5.63
2022-11-23T11:00:09.914Z,5.62
2022-11-23T11:03:24.993Z,5.63
2022-11-23T11:06:36.920Z,5.59
2022-11-23T11:09:54.711Z,5.60
2022-11-23T11:13:10.901Z,5.68
2022-11-23T11:16:37.220Z,5.69
2022-11-23T11:19:52.963Z,5.71
2022-11-23T11:23:22.909Z,5.73
2022-11-23T11:26:49.791Z,5.74
2022-11-23T11:30:13.914Z,5.81
2022-11-23T11:33:22.813Z,5.84
2022-11-23T11:36:45.879Z,5.88
2022-11-23T11:40:02.454Z,5.97
2022-11-23T11:43:39.621Z,5.91
2022-11-23T11:47:02.894Z,5.94
2022-11-23T11:50:32.061Z,5.94
2022-11-23T11:54:24.891Z,5.94
2022-11-23T11:57:48.866Z,5.96
2022-11-23T12:01:20.308Z,6.00
2022-11-23T12:04:49.862Z,6.02
2022-11-23T12:08:16.415Z,6.04
2022-11-23T12:11:30.869Z,6.03
2022-11-23T12:14:38.856Z,6.00
2022-11-23T12:18:19.571Z,6.06
2022-11-23T12:21:56.961Z,6.06
2022-11-23T12:25:14.225Z,6.10
2022-11-23T12:28:56.879Z,6.11
2022-11-23T12:32:27.021Z,6.04
2022-11-23T12:36:16.710Z,6.07
2022-11-23T12:39:58.848Z,6.11
2022-11-23T12:43:26.624Z,6.15
2022-11-23T12:46:50.885Z,6.15
2022-11-23T12:50:21.833Z,6.07
2022-11-23T12:54:02.130Z,6.04
2022-11-23T12:57:15.092Z,6.10
2022-11-23T13:00:35.913Z,6.14
2022-11-23T13:04:15.985Z,6.16
2022-11-23T13:07:37.295Z,6.12
2022-11-23T13:11:01.922Z,6.21
2022-11-23T13:14:39.976Z,6.23
2022-11-23T13:18:15.842Z,6.26
2022-11-23T13:21:45.909Z,6.26
2022-11-23T13:25:26.822Z,6.30
2022-11-23T13:28:41.871Z,6.21
2022-11-23T13:32:34.899Z,6.22
2022-11-23T13:35:43.462Z,6.21
2022-11-23T13:38:51.848Z,6.14
2022-11-23T13:42:07.898Z,6.26
2022-11-23T13:45:25.557Z,6.23
2022-11-23T13:48:55.533Z,6.17
2022-11-23T13:52:06.511Z,6.18
2022-11-23T13:55:21.861Z,6.17
2022-11-23T13:58:23.832Z,6.18
2022-11-23T14:02:04.887Z,6.17
2022-11-23T14:05:56.926Z,6.19
2022-11-23T14:09:29.922Z,6.18
2022-11-23T14:12:54.395Z,6.21
2022-11-23T14:16:11.904Z,6.10
2022-11-23T14:19:41.860Z,6.10
2022-11-23T14:22:53.506Z,6.11
2022-11-23T14:26:41.872Z,6.10
2022-11-23T14:30:32.642Z,6.15
2022-11-23T14:34:00.878Z,6.12
2022-11-23T14:37:44.348Z,6.13
2022-11-23T14:41:29.833Z,6.11
2022-11-23T14:44:47.844Z,6.09
2022-11-23T14:47:56.561Z,6.09
2022-11-23T14:51:08.894Z,6.05
2022-11-23T14:54:17.648Z,6.09
2022-11-23T14:57:31.822Z,6.08
2022-11-23T15:00:49.863Z,6.09
2022-11-23T15:04:06.943Z,6.10
2022-11-23T15:07:32.371Z,6.15
2022-11-23T15:11:19.856Z,6.16
2022-11-23T15:14:33.329Z,6.13
2022-11-23T15:17:51.565Z,6.05
2022-11-23T15:21:00.853Z,6.08
2022-11-23T15:24:21.373Z,6.05
2022-11-23T15:27:36.839Z,6.07
2022-11-23T15:30:45.717Z,6.07
2022-11-23T15:34:01.876Z,6.05
2022-11-23T15:37:17.882Z,6.03
2022-11-23T15:40:31.065Z,6.04
2022-11-23T15:43:58.915Z,6.03
2022-11-23T15:47:04.554Z,6.02
2022-11-23T15:50:20.861Z,6.00
2022-11-23T15:53:50.532Z,6.01
2022-11-23T15:57:06.869Z,5.99
2022-11-23T16:00:27.891Z,6.01
2022-11-23T16:04:03.846Z,6.00
2022-11-23T16:07:31.908Z,6.00
2022-11-23T16:10:41.157Z,5.98
2022-11-23T16:13:58.486Z,6.01
2022-11-23T16:17:14.918Z,6.01
2022-11-23T16:20:32.115Z,6.03
2022-11-23T16:23:49.695Z,6.04
2022-11-23T16:27:04.895Z,6.00
2022-11-23T16:30:22.385Z,6.04
2022-11-23T16:33:36.976Z,6.05
2022-11-23T16:36:46.214Z,5.99
2022-11-23T16:40:01.240Z,6.01
2022-11-23T16:43:03.593Z,6.03
2022-11-23T16:46:18.920Z,6.03
2022-11-23T16:49:27.454Z,6.00
2022-11-23T16:52:41.837Z,6.01
2022-11-23T16:55:53.823Z,6.01
2022-11-23T16:59:09.183Z,5.99
2022-11-23T17:02:23.370Z,6.02
2022-11-23T17:05:38.246Z,6.04
2022-11-23T17:08:47.254Z,6.05
2022-11-23T17:11:55.877Z,6.01
2022-11-23T17:15:06.183Z,6.00
2022-11-23T17:18:15.309Z,5.97
2022-11-23T17:21:30.259Z,5.94
2022-11-23T17:24:32.713Z,5.97
2022-11-23T17:27:55.390Z,5.93
2022-11-23T17:31:10.177Z,5.95
2022-11-23T17:34:23.256Z,5.91
2022-11-23T17:37:31.819Z,5.91
2022-11-23T17:40:47.296Z,5.93
2022-11-23T17:43:56.174Z,5.97
2022-11-23T17:47:05.452Z,5.97
2022-11-23T17:50:19.241Z,6.00
2022-11-23T17:53:34.279Z,6.02
2022-11-23T17:56:50.239Z,6.05
2022-11-23T18:00:03.326Z,6.04
2022-11-23T18:03:12.481Z,6.07
2022-11-23T18:06:30.179Z,6.06
2022-11-23T18:09:40.179Z,6.04
2022-11-23T18:12:48.833Z,6.05
2022-11-23T18:16:04.377Z,6.04
2022-11-23T18:19:13.175Z,6.06
2022-11-23T18:22:28.262Z,6.03
2022-11-23T18:25:36.708Z,6.05
2022-11-23T18:28:45.766Z,6.04
2022-11-23T18:32:01.222Z,6.04
2022-11-23T18:35:10.381Z,6.04
2022-11-23T18:38:19.263Z,6.06
2022-11-23T18:41:28.101Z,6.07
2022-11-23T18:44:43.171Z,6.06
2022-11-23T18:47:58.273Z,6.09
2022-11-23T18:51:13.285Z,6.08
2022-11-23T18:54:29.241Z,6.05
2022-11-23T18:57:38.390Z,6.06
2022-11-23T19:00:47.385Z,6.06
2022-11-23T19:04:02.266Z,6.07
2022-11-23T19:07:05.088Z,6.09
2022-11-23T19:10:20.289Z,6.09
2022-11-23T19:13:29.459Z,6.07
2022-11-23T19:16:45.188Z,6.10
2022-11-23T19:19:47.660Z,6.08
2022-11-23T19:23:03.249Z,6.07
2022-11-23T19:26:05.963Z,6.06
2022-11-23T19:29:34.713Z,6.04
2022-11-23T19:32:44.237Z,6.02
2022-11-23T19:35:59.255Z,6.04
2022-11-23T19:39:07.623Z,6.04
2022-11-23T19:42:22.825Z,5.96
2022-11-23T19:45:38.304Z,5.97
2022-11-23T19:48:52.825Z,5.95
2022-11-23T19:52:08.242Z,5.97
2022-11-23T19:55:16.910Z,6.00
2022-11-23T19:58:32.282Z,5.99
2022-11-23T20:01:42.091Z,5.95
2022-11-23T20:04:58.291Z,5.97
2022-11-23T20:08:09.220Z,6.00
2022-11-23T20:11:24.233Z,6.01
2022-11-23T20:14:26.762Z,6.01
2022-11-23T20:17:41.846Z,6.05
2022-11-23T20:20:52.296Z,6.02
2022-11-23T20:24:05.149Z,5.99
2022-11-23T20:27:14.256Z,6.01
2022-11-23T20:30:29.123Z,6.01
2022-11-23T20:33:37.825Z,6.02
2022-11-23T20:36:53.187Z,6.00
2022-11-23T20:39:55.874Z,6.01
2022-11-23T20:43:11.272Z,6.01
2022-11-23T20:46:38.281Z,6.06
2022-11-23T20:49:48.271Z,6.07
2022-11-23T20:53:10.258Z,6.07
2022-11-23T20:56:27.466Z,6.08
2022-11-23T20:59:35.833Z,6.08
2022-11-23T21:02:44.533Z,6.12
2022-11-23T21:05:53.154Z,6.06
2022-11-23T21:09:01.750Z,6.04
2022-11-23T21:12:16.830Z,5.98
2022-11-23T21:15:32.382Z,5.98
2022-11-23T21:18:40.866Z,5.97
2022-11-23T21:21:56.885Z,6.00
2022-11-23T21:25:05.869Z,5.98
2022-11-23T21:28:14.423Z,5.97
2022-11-23T21:31:28.840Z,5.99
2022-11-23T21:34:44.113Z,6.00
2022-11-23T21:37:58.836Z,6.01
2022-11-23T21:41:19.838Z,6.02
2022-11-23T21:44:34.975Z,6.00
2022-11-23T21:47:43.613Z,6.01
2022-11-23T21:50:51.812Z,6.02
2022-11-23T21:54:09.864Z,6.02
2022-11-23T21:57:24.889Z,6.01
2022-11-23T22:00:39.875Z,6.00
2022-11-23T22:03:55.549Z,5.98
2022-11-23T22:07:03.887Z,6.00
2022-11-23T22:10:18.853Z,5.98
2022-11-23T22:13:26.846Z,5.99
2022-11-23T22:16:50.913Z,5.98
2022-11-23T22:19:59.490Z,5.98
2022-11-23T22:23:07.846Z,5.98
2022-11-23T22:26:18.243Z,5.97
2022-11-23T22:29:27.880Z,5.97
2022-11-23T22:32:42.839Z,5.97
2022-11-23T22:35:44.742Z,5.98
2022-11-23T22:39:02.387Z,5.94
2022-11-23T22:42:10.836Z,5.88
2022-11-23T22:45:25.888Z,5.84
2022-11-23T22:48:44.852Z,5.84
2022-11-23T22:51:53.840Z,5.82
2022-11-23T22:55:02.613Z,5.79
2022-11-23T22:58:10.832Z,5.83
2022-11-23T23:01:21.760Z,5.86
2022-11-23T23:04:31.031Z,5.81
2022-11-23T23:07:39.624Z,5.83
2022-11-23T23:10:47.842Z,5.85
2022-11-23T23:14:03.847Z,5.83
2022-11-23T23:17:05.861Z,5.83
2022-11-23T23:20:22.872Z,5.80
2022-11-23T23:23:25.448Z,5.82
2022-11-23T23:26:39.854Z,5.86
2022-11-23T23:29:54.824Z,5.85
2022-11-23T23:33:03.466Z,5.84
2022-11-23T23:36:16.844Z,5.83
2022-11-23T23:39:25.542Z,5.84
2022-11-23T23:42:33.834Z,5.80
2022-11-23T23:45:48.917Z,5.81
2022-11-23T23:48:50.879Z,5.83
2022-11-23T23:52:05.865Z,5.79
2022-11-23T23:55:08.424Z,5.82
2022-11-23T23:58:22.858Z,5.85
